Time;durP1;ratioP1;P1;durP2;ratioP2;P2;SDS_P1;SDS_P2;PMS_P1;PMS_P2;Temp;Humidity;BMP_temperature;BMP_pressure;BME280_temperature;BME280_humidity;BME280_pressure;Samples;Min_cycle;Max_cycle;Signal;HPM_P1;HPM_P2
2021/08/21 00:00:43;;;;;;;9.90;7.35;;;15.70;90.60;;;;;;5075120;28;20020;-46
2021/08/21 00:03:09;;;;;;;11.13;7.82;;;15.70;90.70;;;;;;5075309;28;20033;-47
2021/08/21 00:05:35;;;;;;;15.32;8.63;;;15.60;90.80;;;;;;5075106;28;20020;-47
2021/08/21 00:08:01;;;;;;;10.45;7.03;;;15.60;90.90;;;;;;5075054;28;20036;-47
2021/08/21 00:10:28;;;;;;;9.57;8.15;;;15.60;90.90;;;;;;5074891;28;20431;-49
2021/08/21 00:12:55;;;;;;;11.95;7.20;;;15.60;90.90;;;;;;5074782;28;20052;-47
2021/08/21 00:15:20;;;;;;;11.15;8.20;;;15.60;90.80;;;;;;5075027;28;20020;-49
2021/08/21 00:17:47;;;;;;;10.93;7.70;;;15.50;90.80;;;;;;5074726;28;20473;-47
2021/08/21 00:20:12;;;;;;;10.63;6.97;;;15.50;90.90;;;;;;5074455;28;20050;-47
2021/08/21 00:22:38;;;;;;;9.93;6.13;;;15.40;91.00;;;;;;5074877;28;20583;-47
2021/08/21 00:25:05;;;;;;;10.93;7.60;;;15.30;91.00;;;;;;5074960;28;20070;-46
2021/08/21 00:27:30;;;;;;;13.85;7.35;;;15.30;91.10;;;;;;5074622;28;20062;-47
2021/08/21 00:29:56;;;;;;;17.27;9.65;;;15.30;91.10;;;;;;5074425;28;20077;-47
2021/08/21 00:32:22;;;;;;;9.70;6.80;;;15.30;91.30;;;;;;5074780;28;20017;-47
2021/08/21 00:34:47;;;;;;;10.40;7.18;;;15.30;91.40;;;;;;5074109;28;20530;-46
2021/08/21 00:37:13;;;;;;;11.80;7.32;;;15.30;91.40;;;;;;5073536;28;20594;-50
2021/08/21 00:39:39;;;;;;;12.13;8.82;;;15.30;91.30;;;;;;5074376;28;20353;-46
2021/08/21 00:42:06;;;;;;;11.23;7.13;;;15.30;91.40;;;;;;5074232;28;20103;-46
2021/08/21 00:44:33;;;;;;;12.27;8.45;;;15.30;91.30;;;;;;5074157;28;20028;-49
2021/08/21 00:47:09;;;;;;;11.63;6.93;;;15.30;91.30;;;;;;5074035;28;20056;-48
2021/08/21 00:49:37;;;;;;;9.68;7.55;;;15.30;91.40;;;;;;5074363;28;20016;-50
2021/08/21 00:52:05;;;;;;;10.90;7.40;;;15.30;91.30;;;;;;5074042;28;20032;-48
2021/08/21 00:54:31;;;;;;;10.80;7.95;;;15.30;91.30;;;;;;5073894;28;20027;-47
2021/08/21 00:57:00;;;;;;;9.13;6.90;;;15.30;91.30;;;;;;5074088;28;20039;-46
2021/08/21 00:59:32;;;;;;;12.65;8.82;;;15.30;91.40;;;;;;5073647;28;20060;-47
2021/08/21 01:01:58;;;;;;;9.55;7.05;;;15.20;91.30;;;;;;5073802;28;20025;-49
2021/08/21 01:04:24;;;;;;;9.88;7.38;;;15.20;91.30;;;;;;5073561;28;20419;-47
2021/08/21 01:06:49;;;;;;;8.82;7.05;;;15.10;91.20;;;;;;5073343;28;20031;-46
2021/08/21 01:09:15;;;;;;;11.00;7.85;;;15.10;91.20;;;;;;5073419;28;20428;-45
2021/08/21 01:11:41;;;;;;;17.20;7.03;;;15.10;91.30;;;;;;5073374;28;20017;-46
2021/08/21 01:14:06;;;;;;;9.80;7.35;;;15.10;91.40;;;;;;5073269;28;20021;-47
2021/08/21 01:16:32;;;;;;;14.75;6.75;;;15.10;91.50;;;;;;5073602;28;20033;-46
2021/08/21 01:18:59;;;;;;;11.40;7.30;;;15.10;91.40;;;;;;5073205;28;20140;-50
2021/08/21 01:21:25;;;;;;;10.38;7.47;;;15.00;91.40;;;;;;5073141;28;20024;-47
2021/08/21 01:23:51;;;;;;;10.98;7.30;;;15.00;91.40;;;;;;5073076;28;20048;-47
2021/08/21 01:26:17;;;;;;;10.18;7.32;;;14.90;91.50;;;;;;5073074;28;20036;-47
2021/08/21 01:28:42;;;;;;;9.75;7.80;;;14.90;91.60;;;;;;5073386;28;20417;-46
2021/08/21 01:31:08;;;;;;;9.30;6.68;;;14.90;91.60;;;;;;5073156;28;20508;-46
2021/08/21 01:33:37;;;;;;;10.15;8.15;;;14.90;91.70;;;;;;5073285;28;20381;-51
2021/08/21 01:36:04;;;;;;;12.68;7.10;;;14.80;91.60;;;;;;5073102;28;20029;-48
2021/08/21 01:38:30;;;;;;;11.32;6.85;;;14.90;91.70;;;;;;5073430;28;20025;-46
2021/08/21 01:40:56;;;;;;;10.05;7.32;;;14.90;91.60;;;;;;5073107;28;20025;-45
2021/08/21 01:43:22;;;;;;;9.65;6.95;;;14.90;91.60;;;;;;5073580;28;20408;-45
2021/08/21 01:45:49;;;;;;;10.95;7.95;;;14.90;91.50;;;;;;5072959;28;20074;-47
2021/08/21 01:48:16;;;;;;;13.63;9.07;;;14.90;91.50;;;;;;5071553;28;20495;-47
2021/08/21 01:50:42;;;;;;;13.88;7.70;;;14.90;91.50;;;;;;5073077;28;20036;-46
2021/08/21 01:53:14;;;;;;;10.88;8.20;;;14.90;91.50;;;;;;5073053;28;20034;-48
2021/08/21 01:55:41;;;;;;;11.43;8.38;;;14.90;91.60;;;;;;5073314;28;20103;-46
2021/08/21 01:58:06;;;;;;;12.15;8.40;;;14.90;91.60;;;;;;5073305;28;20033;-46
2021/08/21 02:00:32;;;;;;;9.45;8.20;;;14.80;91.60;;;;;;5071864;28;20029;-46
2021/08/21 02:02:58;;;;;;;10.23;8.55;;;14.80;91.60;;;;;;5073078;28;20025;-46
2021/08/21 02:05:24;;;;;;;9.52;7.90;;;14.80;91.70;;;;;;5072907;28;20052;-46
2021/08/21 02:07:51;;;;;;;10.93;7.60;;;14.80;91.70;;;;;;5072890;28;20418;-50
2021/08/21 02:10:18;;;;;;;8.75;7.18;;;14.80;91.70;;;;;;5073111;28;20021;-47
2021/08/21 02:12:44;;;;;;;9.10;6.75;;;14.80;91.50;;;;;;5072783;28;20020;-48
2021/08/21 02:15:14;;;;;;;9.20;7.03;;;14.80;91.30;;;;;;5073114;28;20025;-48
2021/08/21 02:17:41;;;;;;;9.52;7.85;;;14.80;91.40;;;;;;5073097;28;20096;-47
2021/08/21 02:20:11;;;;;;;10.38;8.27;;;14.70;91.40;;;;;;5072890;28;20047;-46
2021/08/21 02:22:39;;;;;;;11.07;7.63;;;14.70;91.60;;;;;;5072508;28;20048;-46
2021/08/21 02:25:06;;;;;;;8.73;6.90;;;14.70;91.60;;;;;;5072768;28;20051;-47
2021/08/21 02:27:37;;;;;;;10.98;6.75;;;14.70;91.50;;;;;;5072783;28;20051;-46
2021/08/21 02:30:04;;;;;;;13.98;7.40;;;14.60;91.60;;;;;;5072470;28;20100;-46
2021/08/21 02:32:30;;;;;;;10.20;7.22;;;14.60;91.40;;;;;;5072325;28;20322;-47
2021/08/21 02:34:55;;;;;;;9.52;7.20;;;14.50;91.40;;;;;;5072418;28;20111;-49
2021/08/21 02:37:21;;;;;;;8.85;6.88;;;14.50;91.50;;;;;;5072548;28;20104;-46
2021/08/21 02:39:47;;;;;;;11.77;7.45;;;14.50;91.60;;;;;;5072710;28;20032;-46
2021/08/21 02:42:13;;;;;;;10.70;7.15;;;14.50;91.70;;;;;;5072515;28;20028;-51
2021/08/21 02:44:39;;;;;;;10.07;7.43;;;14.50;91.70;;;;;;5072424;28;20477;-46
2021/08/21 02:47:05;;;;;;;11.98;7.55;;;14.40;91.60;;;;;;5071082;28;20021;-46
2021/08/21 02:49:32;;;;;;;8.60;7.47;;;14.40;91.60;;;;;;5072486;28;20484;-46
2021/08/21 02:51:58;;;;;;;8.95;7.38;;;14.40;91.70;;;;;;5072662;28;20056;-48
2021/08/21 02:54:23;;;;;;;11.85;7.47;;;14.40;91.80;;;;;;5072307;28;20111;-48
2021/08/21 02:56:49;;;;;;;12.55;7.30;;;14.40;91.80;;;;;;5072363;28;20473;-47
2021/08/21 02:59:15;;;;;;;9.77;7.20;;;14.40;91.90;;;;;;5073403;28;20027;-47
2021/08/21 03:01:40;;;;;;;13.70;7.93;;;14.40;91.90;;;;;;5076198;28;20032;-47
2021/08/21 03:04:06;;;;;;;9.85;7.32;;;14.40;91.80;;;;;;5076067;28;20381;-47
2021/08/21 03:06:31;;;;;;;11.02;7.00;;;14.40;91.80;;;;;;5076034;28;20032;-46
2021/08/21 03:08:57;;;;;;;9.43;7.15;;;14.30;91.70;;;;;;5076285;28;20017;-46
2021/08/21 03:11:23;;;;;;;12.55;7.18;;;14.40;91.70;;;;;;5075952;28;20028;-47
2021/08/21 03:13:48;;;;;;;9.23;7.25;;;14.30;91.50;;;;;;5075946;28;20082;-47
2021/08/21 03:16:14;;;;;;;14.95;7.05;;;14.30;91.60;;;;;;5076139;28;20021;-48
2021/08/21 03:18:39;;;;;;;9.93;7.05;;;14.20;91.60;;;;;;5076129;28;20067;-48
2021/08/21 03:21:05;;;;;;;9.77;7.00;;;14.20;91.70;;;;;;5076001;28;20444;-46
2021/08/21 03:23:31;;;;;;;11.75;7.78;;;14.20;91.80;;;;;;5075699;28;20404;-46
2021/08/21 03:25:56;;;;;;;9.48;7.57;;;14.20;91.80;;;;;;5075881;28;20075;-46
2021/08/21 03:28:22;;;;;;;15.18;9.07;;;14.20;91.80;;;;;;5075641;28;20081;-46
2021/08/21 03:30:48;;;;;;;12.35;7.20;;;14.20;91.80;;;;;;5075627;28;20025;-49
2021/08/21 03:33:13;;;;;;;11.57;7.63;;;14.20;91.80;;;;;;5075884;28;20345;-49
2021/08/21 03:35:39;;;;;;;9.88;7.30;;;14.20;91.70;;;;;;5075884;28;20066;-49
2021/08/21 03:38:05;;;;;;;13.30;7.72;;;14.20;91.60;;;;;;5074289;28;20024;-46
2021/08/21 03:40:30;;;;;;;11.32;7.35;;;14.20;91.50;;;;;;5075580;28;20024;-48
2021/08/21 03:42:56;;;;;;;11.95;7.80;;;14.20;91.60;;;;;;5075438;28;20068;-47
2021/08/21 03:45:22;;;;;;;10.15;7.63;;;14.20;91.50;;;;;;5075715;28;20024;-51
2021/08/21 03:47:47;;;;;;;11.68;8.05;;;14.20;91.50;;;;;;5075543;28;20366;-47
2021/08/21 03:50:13;;;;;;;12.95;7.82;;;14.20;91.50;;;;;;5075337;28;20027;-47
2021/08/21 03:52:39;;;;;;;11.85;8.55;;;14.10;91.50;;;;;;5075316;28;20060;-47
2021/08/21 03:55:05;;;;;;;14.52;7.72;;;14.20;91.40;;;;;;5075185;28;20043;-50
2021/08/21 03:57:31;;;;;;;9.00;7.97;;;14.10;91.40;;;;;;5075384;28;20052;-47
2021/08/21 03:59:57;;;;;;;10.60;8.05;;;14.10;91.50;;;;;;5075365;28;20055;-47
2021/08/21 04:02:22;;;;;;;12.20;9.15;;;14.10;91.40;;;;;;5074787;28;20029;-53
2021/08/21 04:04:48;;;;;;;11.02;8.35;;;14.10;91.40;;;;;;5074561;28;20172;-49
2021/08/21 04:07:17;;;;;;;12.00;9.77;;;14.10;91.50;;;;;;5074554;28;20451;-49
2021/08/21 04:09:43;;;;;;;10.10;8.55;;;14.10;91.40;;;;;;5074455;28;20025;-45
2021/08/21 04:12:09;;;;;;;12.15;8.00;;;14.00;91.50;;;;;;5072817;28;20105;-47
2021/08/21 04:14:35;;;;;;;10.43;7.95;;;14.00;91.50;;;;;;5074497;28;20044;-46
2021/08/21 04:17:01;;;;;;;10.00;8.13;;;13.90;91.50;;;;;;5074097;28;20059;-49
2021/08/21 04:19:26;;;;;;;12.82;8.40;;;14.00;91.50;;;;;;5074284;28;20024;-46
2021/08/21 04:21:52;;;;;;;11.45;8.38;;;13.90;91.50;;;;;;5074005;28;20036;-46
2021/08/21 04:24:18;;;;;;;9.70;7.93;;;13.90;91.70;;;;;;5074196;28;20032;-47
2021/08/21 04:26:43;;;;;;;12.93;9.43;;;13.90;91.90;;;;;;5073992;28;20024;-49
2021/08/21 04:29:13;;;;;;;12.75;9.02;;;13.90;92.00;;;;;;5074230;28;20112;-49
2021/08/21 04:31:38;;;;;;;13.25;9.00;;;14.00;92.00;;;;;;5073896;28;20044;-46
2021/08/21 04:34:04;;;;;;;11.63;9.10;;;14.00;91.80;;;;;;5074600;28;20024;-46
2021/08/21 04:36:30;;;;;;;15.10;9.50;;;14.10;91.80;;;;;;5073116;28;20121;-51
2021/08/21 04:38:55;;;;;;;14.23;10.07;;;14.00;92.00;;;;;;5074386;28;20476;-47
2021/08/21 04:41:21;;;;;;;14.52;9.90;;;14.10;92.00;;;;;;5074323;28;20519;-47
2021/08/21 04:43:46;;;;;;;12.63;8.13;;;14.00;91.90;;;;;;5074378;28;20056;-47
2021/08/21 04:46:12;;;;;;;11.38;8.40;;;14.00;91.90;;;;;;5074232;28;20060;-46
2021/08/21 04:48:38;;;;;;;18.23;9.48;;;14.00;91.90;;;;;;5074512;28;20025;-47
2021/08/21 04:51:03;;;;;;;12.05;8.10;;;14.10;91.90;;;;;;5074237;28;20021;-46
2021/08/21 04:53:29;;;;;;;13.40;8.68;;;14.20;91.80;;;;;;5074061;28;20021;-46
2021/08/21 04:55:54;;;;;;;10.93;9.25;;;14.20;91.60;;;;;;5074027;28;20107;-47
2021/08/21 04:58:20;;;;;;;12.60;7.88;;;14.30;91.40;;;;;;5074050;28;20115;-46
2021/08/21 05:00:46;;;;;;;13.63;9.27;;;14.40;91.20;;;;;;5073936;28;20452;-48
2021/08/21 05:03:12;;;;;;;15.95;9.50;;;14.50;90.90;;;;;;5074177;28;20051;-48
2021/08/21 05:05:37;;;;;;;14.82;9.65;;;14.60;90.80;;;;;;5074084;28;20031;-51
2021/08/21 05:08:04;;;;;;;16.98;9.35;;;14.80;90.60;;;;;;5073923;28;20052;-47
2021/08/21 05:10:29;;;;;;;12.95;10.10;;;15.00;90.30;;;;;;5073718;28;20051;-48
2021/08/21 05:12:55;;;;;;;13.90;9.40;;;15.00;89.80;;;;;;5073942;28;20021;-48
2021/08/21 05:15:20;;;;;;;16.77;10.30;;;15.20;89.80;;;;;;5073618;28;20031;-46
2021/08/21 05:17:48;;;;;;;14.80;9.10;;;15.30;88.90;;;;;;5073920;28;20482;-47
2021/08/21 05:25:09;;;;;;;15.32;9.80;;;15.60;88.20;;;;;;5073878;28;20035;-49
2021/08/21 05:27:35;;;;;;;20.45;9.75;;;15.60;88.20;;;;;;5073385;28;20115;-50
2021/08/21 05:30:01;;;;;;;11.02;9.07;;;15.50;88.50;;;;;;5073678;28;20098;-47
2021/08/21 05:32:26;;;;;;;19.30;9.25;;;15.50;88.90;;;;;;5073649;28;20016;-47
2021/08/21 05:34:52;;;;;;;17.60;9.77;;;15.60;89.00;;;;;;5073322;28;20023;-46
2021/08/21 05:37:18;;;;;;;14.45;10.35;;;15.70;88.80;;;;;;5073273;28;20048;-47
2021/08/21 05:39:43;;;;;;;14.32;9.15;;;15.80;88.70;;;;;;5073442;28;20024;-47
2021/08/21 05:42:09;;;;;;;16.85;9.80;;;15.90;88.20;;;;;;5071870;28;20039;-51
2021/08/21 05:44:34;;;;;;;16.55;9.82;;;16.00;88.20;;;;;;5073269;28;20034;-49
2021/08/21 05:47:00;;;;;;;14.20;10.07;;;16.20;87.20;;;;;;5073148;28;20024;-47
2021/08/21 05:49:26;;;;;;;14.05;9.40;;;16.20;87.70;;;;;;5073430;28;20024;-49
2021/08/21 05:51:51;;;;;;;15.77;11.02;;;16.20;87.40;;;;;;5073007;28;20112;-47
2021/08/21 05:54:17;;;;;;;16.30;9.85;;;16.20;87.80;;;;;;5073292;28;20016;-48
2021/08/21 05:56:43;;;;;;;13.52;9.40;;;16.20;87.80;;;;;;5073054;28;20032;-47
2021/08/21 05:59:08;;;;;;;15.60;10.10;;;16.10;88.10;;;;;;5073344;28;20451;-46
2021/08/21 06:01:38;;;;;;;15.18;10.75;;;16.20;88.10;;;;;;5073182;28;20135;-46
2021/08/21 06:04:04;;;;;;;16.17;11.57;;;16.20;88.30;;;;;;5072914;28;20097;-46
2021/08/21 06:06:30;;;;;;;17.42;10.73;;;16.30;88.10;;;;;;5072604;28;20027;-46
2021/08/21 06:08:55;;;;;;;14.00;10.60;;;16.30;87.90;;;;;;5072111;28;20021;-47
2021/08/21 06:11:21;;;;;;;20.90;11.10;;;16.40;88.10;;;;;;5073509;28;20029;-46
2021/08/21 06:13:47;;;;;;;20.65;11.32;;;16.50;87.60;;;;;;5073056;28;20437;-47
2021/08/21 06:16:12;;;;;;;12.82;9.93;;;16.80;86.80;;;;;;5072883;28;20046;-47
2021/08/21 06:18:38;;;;;;;14.57;12.13;;;16.80;86.50;;;;;;5072818;28;20035;-51
2021/08/21 06:21:04;;;;;;;17.17;12.05;;;16.90;86.70;;;;;;5072971;28;20422;-47
2021/08/21 06:23:31;;;;;;;12.43;10.73;;;17.20;85.70;;;;;;5072459;28;20136;-48
2021/08/21 06:25:56;;;;;;;18.08;11.00;;;17.10;85.20;;;;;;5072617;28;20028;-46
2021/08/21 06:28:23;;;;;;;17.35;11.52;;;17.10;85.60;;;;;;5072661;28;20021;-48
2021/08/21 06:30:48;;;;;;;19.23;11.35;;;17.00;86.40;;;;;;5071162;28;20205;-46
2021/08/21 06:33:14;;;;;;;18.38;11.27;;;16.90;86.40;;;;;;5072449;28;20073;-46
2021/08/21 06:35:40;;;;;;;15.50;11.40;;;16.90;86.60;;;;;;5076559;28;20020;-48
2021/08/21 06:38:05;;;;;;;18.25;12.40;;;17.10;86.60;;;;;;5076732;28;20100;-46
2021/08/21 06:40:31;;;;;;;17.58;12.45;;;17.10;86.30;;;;;;5076194;28;20055;-46
2021/08/21 06:42:56;;;;;;;17.60;11.90;;;17.30;85.70;;;;;;5076370;28;20025;-47
2021/08/21 06:45:22;;;;;;;15.15;11.02;;;17.30;85.60;;;;;;5076916;28;20047;-49
2021/08/21 06:47:48;;;;;;;19.75;12.45;;;17.40;85.40;;;;;;5076380;28;20056;-47
2021/08/21 06:50:13;;;;;;;13.65;10.52;;;17.70;85.70;;;;;;5075900;28;20464;-47
2021/08/21 06:52:39;;;;;;;14.68;10.55;;;17.80;84.10;;;;;;5075950;28;20096;-48
2021/08/21 06:55:05;;;;;;;83.47;20.67;;;17.80;84.30;;;;;;5076156;28;20509;-47
2021/08/21 06:57:31;;;;;;;21.90;11.73;;;18.00;83.70;;;;;;5076398;28;20078;-49
2021/08/21 06:59:57;;;;;;;16.63;11.35;;;18.10;83.50;;;;;;5076345;28;20016;-47
2021/08/21 07:02:24;;;;;;;18.83;11.88;;;18.10;83.30;;;;;;5076886;28;20024;-47
2021/08/21 07:04:49;;;;;;;17.48;11.10;;;18.10;83.40;;;;;;5076379;28;20468;-48
2021/08/21 07:07:15;;;;;;;19.17;11.23;;;18.20;83.20;;;;;;5076051;28;20027;-48
2021/08/21 07:09:41;;;;;;;21.70;12.00;;;18.10;83.40;;;;;;5076022;28;20028;-48
2021/08/21 07:12:07;;;;;;;14.05;10.48;;;18.30;83.50;;;;;;5076189;28;20017;-49
2021/08/21 07:14:32;;;;;;;16.83;11.73;;;18.50;82.40;;;;;;5075916;28;20102;-50
2021/08/21 07:16:58;;;;;;;12.75;10.60;;;18.50;82.30;;;;;;5076004;28;20025;-47
2021/08/21 07:19:23;;;;;;;15.30;10.30;;;18.60;81.90;;;;;;5075751;28;20472;-49
2021/08/21 07:21:53;;;;;;;16.15;10.52;;;18.80;82.00;;;;;;5075867;28;20032;-48
2021/08/21 07:24:22;;;;;;;18.80;11.60;;;18.80;81.50;;;;;;5076325;28;20384;-48
2021/08/21 07:26:51;;;;;;;14.83;10.97;;;18.90;82.00;;;;;;5074256;28;20082;-47
2021/08/21 07:29:17;;;;;;;18.35;11.32;;;19.00;81.50;;;;;;5075751;28;20025;-50
2021/08/21 07:31:42;;;;;;;14.65;10.07;;;19.20;80.10;;;;;;5075541;28;20028;-46
2021/08/21 07:34:08;;;;;;;14.43;11.15;;;19.30;80.20;;;;;;5075512;28;20031;-46
2021/08/21 07:36:34;;;;;;;12.82;10.65;;;19.50;80.30;;;;;;5075693;28;20550;-47
2021/08/21 07:39:00;;;;;;;15.10;10.90;;;19.70;79.50;;;;;;5074966;28;20099;-49
2021/08/21 07:41:25;;;;;;;18.20;10.80;;;19.80;78.80;;;;;;5075518;28;20353;-49
2021/08/21 07:43:51;;;;;;;14.85;9.63;;;19.90;78.40;;;;;;5075444;28;20487;-49
2021/08/21 07:46:17;;;;;;;16.58;10.15;;;20.00;78.60;;;;;;5074809;28;20025;-49
2021/08/21 07:48:43;;;;;;;14.77;10.82;;;20.00;77.90;;;;;;5075256;28;20372;-46
2021/08/21 07:51:08;;;;;;;15.13;10.65;;;20.00;78.00;;;;;;5073509;28;20333;-51
2021/08/21 07:53:34;;;;;;;22.42;11.10;;;20.10;77.70;;;;;;5075207;28;20071;-50
2021/08/21 07:56:06;;;;;;;16.33;10.73;;;20.20;77.80;;;;;;5074353;28;20047;-49
2021/08/21 07:58:34;;;;;;;18.90;11.73;;;20.60;76.30;;;;;;5074526;28;20090;-50
2021/08/21 08:01:01;;;;;;;14.93;11.20;;;20.80;74.50;;;;;;5058216;28;20101;-47
2021/08/21 08:03:28;;;;;;;16.92;10.48;;;20.80;74.30;;;;;;5075273;28;20025;-48
2021/08/21 08:05:53;;;;;;;16.88;9.98;;;20.80;75.40;;;;;;5074120;28;20025;-49
2021/08/21 08:08:20;;;;;;;16.38;9.90;;;20.70;75.40;;;;;;5074947;28;20043;-50
2021/08/21 08:10:46;;;;;;;16.73;10.85;;;20.70;75.90;;;;;;5074969;28;20553;-47
2021/08/21 08:13:11;;;;;;;15.18;10.98;;;21.30;73.20;;;;;;5075038;28;20052;-47
2021/08/21 08:15:37;;;;;;;16.98;10.13;;;21.00;74.50;;;;;;5072905;28;20017;-47
2021/08/21 08:18:03;;;;;;;12.68;10.52;;;20.70;74.80;;;;;;5074613;28;20037;-47
2021/08/21 08:20:30;;;;;;;18.17;11.75;;;21.00;74.30;;;;;;5074632;28;20036;-48
2021/08/21 08:22:56;;;;;;;13.60;9.35;;;21.00;74.30;;;;;;5074318;28;20123;-48
2021/08/21 08:25:22;;;;;;;14.73;10.55;;;20.80;74.70;;;;;;5074517;28;20502;-48
2021/08/21 08:27:47;;;;;;;16.63;9.77;;;20.80;75.20;;;;;;5074782;28;20099;-48
2021/08/21 08:30:14;;;;;;;15.10;9.15;;;21.00;74.60;;;;;;5074344;28;20020;-47
2021/08/21 08:32:39;;;;;;;16.13;10.38;;;21.10;74.60;;;;;;5074131;28;20075;-49
2021/08/21 08:35:05;;;;;;;15.10;10.43;;;21.10;74.90;;;;;;5074471;28;20048;-48
2021/08/21 08:37:31;;;;;;;13.57;9.32;;;21.40;73.50;;;;;;5074028;28;20024;-48
2021/08/21 08:39:57;;;;;;;14.63;9.40;;;21.40;73.80;;;;;;5074199;28;20369;-48
2021/08/21 08:42:22;;;;;;;15.35;9.20;;;21.60;73.50;;;;;;5074165;28;20028;-49
2021/08/21 08:44:49;;;;;;;12.23;9.00;;;21.80;72.50;;;;;;5074409;28;20055;-50
2021/08/21 08:47:18;;;;;;;13.25;8.38;;;21.80;72.10;;;;;;5074406;28;20348;-48
2021/08/21 08:49:46;;;;;;;14.45;8.48;;;21.80;72.30;;;;;;5074029;28;20012;-51
2021/08/21 08:52:11;;;;;;;13.90;9.15;;;21.80;71.90;;;;;;5073993;28;20372;-48
2021/08/21 08:54:37;;;;;;;11.82;8.75;;;21.80;71.50;;;;;;5073904;28;20025;-48
2021/08/21 08:57:03;;;;;;;10.50;8.43;;;21.80;71.20;;;;;;5073103;28;20024;-47
2021/08/21 08:59:30;;;;;;;18.13;8.88;;;21.80;70.90;;;;;;5074091;28;20364;-50
2021/08/21 09:01:56;;;;;;;15.15;8.93;;;22.40;69.80;;;;;;5073981;28;20032;-48
2021/08/21 09:04:24;;;;;;;14.10;9.05;;;22.90;68.20;;;;;;5072329;28;20078;-52
2021/08/21 09:06:53;;;;;;;12.55;8.60;;;22.60;67.60;;;;;;5074339;28;20377;-51
2021/08/21 09:09:20;;;;;;;15.27;8.60;;;22.70;67.70;;;;;;5072598;28;20108;-50
2021/08/21 09:11:53;;;;;;;13.02;8.93;;;22.80;67.20;;;;;;5073938;28;20028;-48
2021/08/21 09:14:18;;;;;;;13.48;8.52;;;22.80;67.50;;;;;;5072417;28;20377;-49
2021/08/21 09:16:44;;;;;;;12.02;9.23;;;23.00;66.90;;;;;;5073615;28;20025;-49
2021/08/21 09:19:09;;;;;;;12.88;7.70;;;23.30;66.20;;;;;;5073255;28;20115;-51
2021/08/21 09:21:35;;;;;;;13.88;7.95;;;23.60;64.70;;;;;;5073015;28;20460;-51
2021/08/21 09:24:24;;;;;;;14.80;7.80;;;23.80;64.20;;;;;;5072955;28;20662;-49
2021/08/21 09:26:50;;;;;;;13.60;8.70;;;23.60;65.20;;;;;;5072799;28;20064;-48
2021/08/21 09:29:27;;;;;;;12.07;8.68;;;23.80;63.90;;;;;;5071160;28;20091;-49
2021/08/21 09:32:13;;;;;;;12.60;8.43;;;23.90;63.20;;;;;;5073046;28;20048;-47
2021/08/21 09:34:39;;;;;;;11.35;8.75;;;24.00;63.50;;;;;;5072687;28;20071;-48
2021/08/21 09:37:09;;;;;;;13.43;8.20;;;23.70;64.50;;;;;;5073160;28;20032;-49
2021/08/21 09:39:41;;;;;;;;;;;23.40;65.20;;;;;;5073101;28;20112;-49
2021/08/21 09:42:09;;;;;;;10.20;7.68;;;23.60;64.70;;;;;;5072552;28;20382;-49
2021/08/21 09:44:39;;;;;;;12.88;8.18;;;23.60;64.40;;;;;;5072944;28;20357;-47
2021/08/21 09:47:20;;;;;;;12.70;8.25;;;23.90;63.70;;;;;;5072430;28;20025;-48
2021/08/21 09:49:46;;;;;;;18.63;7.63;;;23.80;62.30;;;;;;5072639;28;20021;-48
2021/08/21 09:52:15;;;;;;;11.13;7.00;;;24.80;59.60;;;;;;5071157;28;20383;-48
2021/08/21 09:54:43;;;;;;;10.80;7.07;;;25.10;60.30;;;;;;5070738;28;20387;-49
2021/08/21 09:57:19;;;;;;;12.82;7.30;;;25.70;57.00;;;;;;5072205;28;20025;-50
2021/08/21 09:59:51;;;;;;;11.40;8.07;;;26.00;56.90;;;;;;5072299;28;20101;-50
2021/08/21 10:02:17;;;;;;;8.07;6.38;;;25.50;56.80;;;;;;5072451;28;20019;-47
2021/08/21 10:04:44;;;;;;;6.53;5.82;;;25.80;56.70;;;;;;5072577;28;20029;-47
2021/08/21 10:07:18;;;;;;;11.18;6.70;;;25.40;57.00;;;;;;5071999;28;20035;-49
2021/08/21 10:09:45;;;;;;;11.70;6.97;;;25.00;58.00;;;;;;5071947;28;20031;-48
2021/08/21 10:12:12;;;;;;;9.40;6.15;;;25.50;56.10;;;;;;5070877;28;20021;-50
2021/08/21 10:14:45;;;;;;;7.03;5.53;;;25.60;55.60;;;;;;5071527;28;20033;-48
2021/08/21 10:17:15;;;;;;;8.07;6.13;;;25.60;55.10;;;;;;5072168;28;20031;-47
2021/08/21 10:19:41;;;;;;;7.30;5.63;;;26.10;53.90;;;;;;5072189;28;20020;-47
2021/08/21 10:22:09;;;;;;;7.30;4.80;;;27.00;50.80;;;;;;5070450;28;20050;-49
2021/08/21 10:24:40;;;;;;;6.90;4.97;;;27.30;49.80;;;;;;5070896;28;20029;-49
2021/08/21 10:27:19;;;;;;;7.28;5.63;;;27.80;48.50;;;;;;5071917;28;20498;-48
2021/08/21 10:30:04;;;;;;;8.73;5.70;;;27.50;48.20;;;;;;5072074;28;20157;-47
2021/08/21 10:32:59;;;;;;;9.82;6.03;;;27.10;49.60;;;;;;5072217;28;20059;-47
2021/08/21 10:35:50;;;;;;;9.15;6.07;;;27.70;48.00;;;;;;5070592;28;20064;-52
2021/08/21 10:38:36;;;;;;;8.27;5.68;;;28.10;47.10;;;;;;5072691;28;20024;-48
2021/08/21 10:41:12;;;;;;;8.20;6.40;;;27.30;49.50;;;;;;5070940;28;20028;-49
2021/08/21 10:43:57;;;;;;;7.63;5.80;;;27.00;50.20;;;;;;5070566;28;20108;-49
2021/08/21 10:46:31;;;;;;;7.93;5.22;;;27.00;50.00;;;;;;5071444;28;20035;-50
2021/08/21 10:48:58;;;;;;;14.77;5.75;;;26.80;50.80;;;;;;5071992;28;20028;-49
2021/08/21 10:51:37;;;;;;;6.35;5.00;;;27.30;50.40;;;;;;5071931;28;20167;-50
2021/08/21 10:54:24;;;;;;;5.63;4.55;;;28.00;47.70;;;;;;5071984;28;20464;-50
2021/08/21 13:13:45;;;;;;;3.58;2.95;;;27.70;45.50;;;;;;5108830;27;1310081;-49
2021/08/21 13:16:11;;;;;;;4.03;2.67;;;27.80;45.60;;;;;;5130833;28;20485;-47
2021/08/21 13:18:37;;;;;;;5.15;2.90;;;27.90;45.50;;;;;;5130739;28;20457;-46
2021/08/21 13:21:05;;;;;;;7.88;4.75;;;27.60;46.20;;;;;;5113430;28;20016;-47
2021/08/21 13:23:31;;;;;;;3.38;3.08;;;27.60;45.70;;;;;;5110180;28;20032;-48
2021/08/21 13:25:57;;;;;;;6.15;3.78;;;27.60;45.90;;;;;;5110545;28;20024;-47
2021/08/21 13:28:23;;;;;;;3.60;2.92;;;27.70;46.20;;;;;;5108935;28;20481;-50
2021/08/21 13:30:50;;;;;;;5.78;3.22;;;27.50;45.90;;;;;;5109984;28;20032;-50
2021/08/21 13:33:16;;;;;;;8.38;4.35;;;27.80;45.70;;;;;;5110086;28;20016;-46
2021/08/21 13:35:42;;;;;;;9.10;4.10;;;28.00;44.80;;;;;;5110218;28;20103;-49
2021/08/21 13:38:11;;;;;;;10.65;2.88;;;28.10;44.40;;;;;;5110591;28;20036;-47
2021/08/21 13:40:37;;;;;;;10.55;5.05;;;28.00;44.20;;;;;;5110102;28;20028;-48
2021/08/21 13:43:02;;;;;;;13.32;4.43;;;27.40;45.30;;;;;;5110202;28;20034;-48
2021/08/21 13:45:28;;;;;;;14.25;9.40;;;27.60;45.20;;;;;;5109872;28;20032;-47
2021/08/21 13:47:54;;;;;;;13.68;9.35;;;27.50;45.10;;;;;;5109984;28;20042;-49
2021/08/21 13:50:19;;;;;;;8.63;5.32;;;27.80;44.60;;;;;;5110155;28;20519;-46
2021/08/21 13:52:45;;;;;;;2.95;2.47;;;27.60;44.40;;;;;;5109999;28;20055;-48
2021/08/21 13:55:11;;;;;;;5.82;2.22;;;27.30;45.50;;;;;;5109477;28;20383;-48
2021/08/21 13:57:36;;;;;;;2.95;2.35;;;27.00;47.10;;;;;;5108304;28;20027;-49
2021/08/21 14:00:04;;;;;;;42.85;28.38;;;26.90;46.70;;;;;;5108548;28;20020;-46
2021/08/21 14:02:30;;;;;;;4.35;3.22;;;27.00;47.60;;;;;;5109502;28;20047;-48
2021/08/21 14:04:56;;;;;;;5.20;2.55;;;26.90;47.30;;;;;;5109495;28;20378;-46
2021/08/21 14:07:21;;;;;;;6.72;4.75;;;26.80;48.00;;;;;;5109751;28;20023;-46
2021/08/21 14:09:48;;;;;;;6.65;4.15;;;26.80;48.30;;;;;;5108067;28;20031;-49
2021/08/21 14:12:13;;;;;;;2.92;2.30;;;27.10;47.10;;;;;;5108015;28;20393;-51
2021/08/21 14:14:39;;;;;;;4.38;2.20;;;27.20;47.00;;;;;;5107992;28;20138;-47
2021/08/21 14:17:04;;;;;;;4.38;2.95;;;26.70;47.20;;;;;;5109591;28;20092;-49
2021/08/21 14:19:30;;;;;;;3.95;2.40;;;26.80;47.30;;;;;;5108143;28;20055;-50
2021/08/21 14:21:56;;;;;;;4.13;2.25;;;26.70;47.60;;;;;;5109357;28;20046;-47
2021/08/21 14:24:22;;;;;;;2.95;2.15;;;26.80;47.20;;;;;;5099849;28;20024;-47
2021/08/21 14:26:48;;;;;;;5.47;3.25;;;26.70;47.10;;;;;;5094023;28;20048;-48
2021/08/21 14:29:13;;;;;;;3.95;2.95;;;26.70;47.60;;;;;;5093955;28;20043;-50
2021/08/21 14:31:39;;;;;;;3.33;2.33;;;26.70;48.20;;;;;;5093934;28;20128;-49
2021/08/21 14:34:06;;;;;;;4.25;2.63;;;26.80;47.30;;;;;;5095408;28;20031;-46
2021/08/21 14:36:32;;;;;;;6.60;2.97;;;26.90;47.40;;;;;;5095201;28;20106;-47
2021/08/21 14:38:58;;;;;;;5.82;3.60;;;26.80;47.60;;;;;;5095314;28;20020;-48
2021/08/21 14:41:24;;;;;;;3.25;2.80;;;26.80;48.00;;;;;;5095311;28;20016;-49
2021/08/21 14:43:50;;;;;;;4.00;2.30;;;27.00;47.70;;;;;;5095265;28;20020;-49
2021/08/21 14:46:15;;;;;;;6.50;3.97;;;26.90;47.10;;;;;;5093896;28;20020;-49
2021/08/21 14:48:41;;;;;;;3.75;2.00;;;26.80;48.10;;;;;;5095087;28;20028;-48
2021/08/21 14:51:08;;;;;;;2.60;2.17;;;27.00;48.50;;;;;;5094867;28;20020;-48
2021/08/21 14:53:34;;;;;;;4.30;2.35;;;26.80;48.70;;;;;;5095054;28;20394;-47
2021/08/21 14:56:00;;;;;;;2.78;2.55;;;26.40;49.10;;;;;;5095581;28;20518;-49
2021/08/21 14:58:26;;;;;;;3.47;2.30;;;26.20;49.80;;;;;;5094839;28;20444;-49